UUDL

Details ICAO UUDL (IAR)
Name TUNOSHNA
Region Russia
Timezone Europe/Moscow (UTC+3.0)
Plans Departing 25
Arriving 26
Stats Elevation 305 ft / 93 m (AMSL)
Location 57.560668° 40.157367°
Runways 1
Magnetic Variation 12.624° E
Sunrise 2017-12-11 05:52:45 UTC / 2017-12-11 08:52:45 Local
Sunset 2017-12-11 12:35:19 UTC / 2017-12-11 15:35:19 Local
Advertisement - Login to hide

Runways

ID Width Length Bearing (true) Bearing (mag) Surface Threshold Offset Overrun Length
05 144 ft / 44 m 9,842 ft / 3,000 m 63.33° 50.71° Asphalt 0 ft / 0 m 160 ft / 49 m
23 144 ft / 44 m 9,842 ft / 3,000 m 243.37° 230.75° Asphalt 0 ft / 0 m 150 ft / 46 m

Approach Navaids

Runway Type Ident Frequency Range Bearing (true) Bearing (mag) Slope Elevation
23 Localiser IRG 110.50 MHz 18 nm / 33 km 244.13° 231.51° - 305 ft / 93 m (AMSL)
23 Glidescope IRG 110.50 MHz 10 nm / 19 km 243.35° 230.72° 3.00° 305 ft / 93 m (AMSL)

Map

Weather


0- 5 10 15 20 25 30 35+ Temperature / ° C

Clouds and Precipitation
Forecast for 2017-12-12 00:00 UTC. Updated 2 hours ago

Ground ~20,000 ft ~40,000 ft Winds

METAR

UUDL 112100Z 10002MPS 9999 OVC009 01/M01 Q1010 R23/620249 NOSIG RMK QFE749

TAF

TAF UUDL 112000Z 1121/1221 10003MPS 5000 -SNRA OVC010 TEMPO 1121/1209 2100 -SHSNRA BR BKN005 OVC010CB BECMG 1214/1216 14007G12MPS

Frequencies

Recorded 127.35 MHz ATIS
Approach 120.30 MHz APP
Warning: Do not use this data for real-world aviation or navigation. No guarantee of current accuracy is given.